Record high temperature 44.9°C Record low temperature -0.3°C Record high gust 87.3 km/h Record high average 77.7 km/h Record daily rain 484.8 mm Record low windchill -5.8°C Record high barometer 1043.6 hPa Record low barometer 978.0 hPa
Daily high pressure 1016.4 mb Daily low pressure 1014.1 mb Daily low windchill 14.1°C Daily high heat index 20.2°C Daily high gust speed 46.3 kmh ESE Daily high average speed 23.7 kmh SE
Estación de MeteoMurcia.com -------- Murcia-Puente Tocinos
Ultima grabación a: 16:10 Data: 15 November 2018, time of next update: 16:20
Tiempo actualmostly clear - Towering cumulus clouds observed Temperatura actual20.2°C (68.4°F) (Indice de Calor20.2°C ), Temperatura aparente 20.8°C
Temperatura máxima (desde medianoche)20.2°C at: 15:52 Temperatura mínima (desde medianoche)14.1°C at: 06:15
Velocidad media del viento (diez minutos)3.7 kmh (2.0 kts) Dirección del viento (diez minutos)WNW (299°)
Indice de Calor20.2°C ráfagas maxima (última hora)11.8 kmh (6.4 kts) at: 15:32
ráfagas maxima (desde medianoche)46.3 kmh (25.0 kts) at: 05:10 Maximo media de un minuto (desde medianoche)23.7 kmh (12.8 kts) at: 05:16
Lluvia (última hora)0.0 mm Lluvia (desde medianoche)26.8 mm (1.06 in.) at 07:50
Lluvia Este mes 28.6 mm (1.13 in.) Lluvia Hasta la fecha este año249.9 mm (9.84 in.)
Lluvia máxima por minuto (última hora)0.0 mm/min Lluvia maxima por hora (últimas 6 horas)0.0 mm/hora
Lluvia de ayer 0.0 mm Punto de rocío 14.1°C (Wet Bulb :16.6°C )
Humedad 68 %, Humidex 23.6°C Barómetro corregido a msl1014.6 mb
cambio de presión0.1 mb (última hora) Tendencia (últimas 1 hora)ESTACIONARIO
cambio de presión (últimas 12 horas)+0.2 mb cambio de presión (últimas 6 horas)-1.2 mb
Current Temp. Interna 24.3°C
Current Hum. Interna 56%


Última imagen cámara web


Weather report/warning/Metars

Alicante / El Altet, Spain (LEAL) 38-17N 000-33W 31M
Nov 15, 2018 - 09:30 AM EST / 2018.11.15 1430 UTC
Wind: from the ENE (070 degrees) at 12 MPH (10 KT):0
Visibility: greater than 7 mile(s):0
Sky conditions: mostly clear
Weather: Towering cumulus clouds observed
Temperature: 66 F (19 C)
Dew Point: 62 F (17 C)
Relative Humidity: 88%
Pressure (altimeter): 30.00 in. Hg (1016 hPa)
ob: LEAL 151430Z 07010KT 9999 FEW008 FEW020TCU 19/17 Q1016 NOSIG
cycle: 14
Murcia / San Javier, Spain (LELC) 37-47N 000-48W 3M
Nov 15, 2018 - 09:30 AM EST / 2018.11.15 1430 UTC
Wind: from the ENE (060 degrees) at 7 MPH (6 KT) (direction variable):0
Visibility: greater than 7 mile(s):0
Sky conditions: partly cloudy
Temperature: 66 F (19 C)
Dew Point: 59 F (15 C)
Relative Humidity: 77%
Pressure (altimeter): 30.00 in. Hg (1016 hPa)
ob: LELC 151430Z 06006KT 030V100 9999 SCT050 19/15 Q1016 NOSIG
cycle: 14
Murcia / Alcantarilla, Spain (LERI) 37-57N 001-14W 75M
Nov 15, 2018 - 09:00 AM EST / 2018.11.15 1400 UTC
Wind: Calm:0
Visibility: greater than 7 mile(s):0
Sky conditions: partly cloudy
Temperature: 66 F (19 C)
Dew Point: 57 F (14 C)
Relative Humidity: 72%
Pressure (altimeter): 30.00 in. Hg (1016 hPa)
ob: LERI 151400Z 00000KT 9999 SCT020 19/14 Q1016 NOSIG
cycle: 14
Gerona / Costa Brava, Spain (LEGE) 41-54N 002-46E 129M
Nov 15, 2018 - 09:30 AM EST / 2018.11.15 1430 UTC
Wind: from the NE (050 degrees) at 5 MPH (4 KT) (direction variable):0
Visibility: 3 mile(s):0
Sky conditions: mostly cloudy
Weather: showers in the vicinity; Cumulonimbus clouds observed
Temperature: 64 F (18 C)
Dew Point: 60 F (16 C)
Relative Humidity: 88%
Pressure (altimeter): 30.12 in. Hg (1020 hPa)
ob: LEGE 151430Z 05004KT 340V090 6000 VCSH SCT015 FEW025CB BKN030 18/16 Q1020
cycle: 14
Madri-Colmenar, Spain (LECV) 40-39N 003-44W
Nov 15, 2018 - 09:00 AM EST / 2018.11.15 1400 UTC
Wind: from the E (080 degrees) at 8 MPH (7 KT):0
Visibility: greater than 7 mile(s):0
Sky conditions: partly cloudy
Temperature: 60 F (16 C)
Dew Point: 48 F (9 C)
Relative Humidity: 63%
Pressure (altimeter): 30.06 in. Hg (1018 hPa)
ob: LECV 151400Z 08007KT 9999 SCT030 16/09 Q1018
cycle: 14
Asturias / Aviles, Spain (LEAS) 43-33N 006-02W 130M
Nov 15, 2018 - 09:30 AM EST / 2018.11.15 1430 UTC
Wind: Variable at 2 MPH (2 KT):0
Visibility: greater than 7 mile(s):0
Temperature: 66 F (19 C)
Dew Point: 51 F (11 C)
Relative Humidity: 59%
Pressure (altimeter): 30.03 in. Hg (1017 hPa)
ob: LEAS 151430Z VRB02KT CAVOK 19/11 Q1017 NOSIG
cycle: 14
Almeria / Aeropuerto, Spain (LEAM) 36-51N 002-23W 21M
Nov 15, 2018 - 09:30 AM EST / 2018.11.15 1430 UTC
Wind: from the E (080 degrees) at 16 MPH (14 KT):0
Visibility: greater than 7 mile(s):0
Sky conditions: mostly cloudy
Temperature: 68 F (20 C)
Dew Point: 55 F (13 C)
Relative Humidity: 64%
Pressure (altimeter): 29.97 in. Hg (1015 hPa)
ob: LEAM 151430Z 08014KT 9999 FEW040 BKN060 20/13 Q1015
cycle: 14
Pamplona / Noain, Spain (LEPP) 42-46N 001-38W 453M
Nov 15, 2018 - 09:30 AM EST / 2018.11.15 1430 UTC
Wind: from the S (190 degrees) at 13 MPH (11 KT):0
Visibility: greater than 7 mile(s):0
Sky conditions: mostly cloudy
Temperature: 62 F (17 C)
Dew Point: 53 F (12 C)
Relative Humidity: 72%
Pressure (altimeter): 30.09 in. Hg (1019 hPa)
ob: LEPP 151430Z 19011KT 9999 FEW022 BKN028 BKN044 17/12 Q1019
cycle: 14
Badajoz / Talavera La Real, Spain (LEBZ) 38-53N 006-49W 192M
Nov 15, 2018 - 09:00 AM EST / 2018.11.15 1400 UTC
Wind: from the ENE (070 degrees) at 6 MPH (5 KT) (direction variable):0
Visibility: greater than 7 mile(s):0
Temperature: 69 F (21 C)
Dew Point: 55 F (13 C)
Relative Humidity: 60%
Pressure (altimeter): 29.97 in. Hg (1015 hPa)
ob: LEBZ 151400Z 07005KT 040V120 CAVOK 21/13 Q1015
cycle: 14
Albacete / Los Llanos, Spain (LEAB) 38-57N 001-51W 704M
Nov 15, 2018 - 09:00 AM EST / 2018.11.15 1400 UTC
Wind: from the ENE (070 degrees) at 14 MPH (12 KT):0
Visibility: greater than 7 mile(s):0
Sky conditions: mostly cloudy
Temperature: 59 F (15 C)
Dew Point: 55 F (13 C)
Relative Humidity: 87%
Pressure (altimeter): 30.03 in. Hg (1017 hPa)
ob: LEAB 151400Z 07012KT 9999 FEW010 BKN045 15/13 Q1017 NOSIG
cycle: 14



La informacion se graba a intervalos de 2 minutos, pero hay info grabada cada minuto. Optimizado para 800*600 y Color verdadero. Use el boton de

Use the RECARGA en su navegador para recojer la ulima info.

Clicar aquí para regarga diaria de medias/extremas del mes














Created by "Weather Display" software version 10.37S at this start time/date 23:04:47 04/11/2018

La estación de MeteoMurcia.com, publica sus datos en los siguientes proyectos:

Meteoclimatic www.awekas.at

W3Counter
Web Analytics